createdAt,value
2019-01-03T03:31:30.725Z,4.60
2019-01-03T03:34:02.233Z,4.57
2019-01-03T03:36:45.726Z,2.17
2019-01-03T03:39:19.710Z,3.47
2019-01-03T03:41:50.704Z,4.83
2019-01-03T03:44:33.914Z,3.27
2019-01-03T03:47:17.699Z,2.20
2019-01-03T03:49:52.340Z,4.40
2019-01-03T03:52:35.223Z,2.27
2019-01-03T03:55:22.710Z,3.23
2019-01-03T03:57:53.718Z,4.23
2019-01-03T04:00:37.220Z,1.83
2019-01-03T04:03:11.608Z,4.07
2019-01-03T04:05:48.447Z,3.17
2019-01-03T04:08:19.956Z,2.97
2019-01-03T04:10:56.576Z,3.40
2019-01-03T04:13:33.524Z,3.03
2019-01-03T04:16:20.920Z,2.03
2019-01-03T04:18:55.561Z,2.57
2019-01-03T04:21:42.325Z,2.90
2019-01-03T04:24:22.984Z,2.37
2019-01-03T04:26:57.916Z,3.90
2019-01-03T04:29:38.159Z,4.63
2019-01-03T04:32:12.186Z,5.10
2019-01-03T04:34:49.619Z,5.27
2019-01-03T04:37:35.833Z,3.07
2019-01-03T04:40:16.310Z,3.27
2019-01-03T04:42:59.461Z,2.03
2019-01-03T04:45:48.779Z,2.50
2019-01-03T04:48:22.666Z,3.43
2019-01-03T04:51:10.731Z,3.10
2019-01-03T04:53:45.086Z,2.20
2019-01-03T04:56:32.272Z,3.67
2019-01-03T04:59:06.492Z,4.13
2019-01-03T05:02:05.261Z,2.97
2019-01-03T05:04:52.683Z,4.80
2019-01-03T05:07:33.175Z,3.10
2019-01-03T05:10:09.936Z,4.40
2019-01-03T05:12:41.009Z,3.57
2019-01-03T05:15:19.099Z,3.90
2019-01-03T05:18:06.523Z,1.90
2019-01-03T05:20:38.035Z,2.90
2019-01-03T05:23:19.290Z,2.07
2019-01-03T05:25:50.227Z,2.10
2019-01-03T05:28:24.283Z,1.97
2019-01-03T05:31:11.739Z,3.40
2019-01-03T05:33:55.921Z,2.70
2019-01-03T05:36:32.960Z,2.77
2019-01-03T05:39:21.011Z,2.93
2019-01-03T05:41:55.636Z,3.13
2019-01-03T05:44:27.715Z,3.77
2019-01-03T05:47:02.251Z,4.40
2019-01-03T05:49:49.215Z,3.30
2019-01-03T05:52:21.254Z,4.63
2019-01-03T05:55:08.348Z,2.93
2019-01-03T05:57:56.282Z,4.20
2019-01-03T06:00:43.416Z,4.27
2019-01-03T06:03:31.183Z,3.87
2019-01-03T06:06:11.603Z,4.53
2019-01-03T06:08:46.812Z,2.93
2019-01-03T06:11:27.103Z,2.70
2019-01-03T06:14:07.144Z,3.50
2019-01-03T06:16:56.407Z,5.27
2019-01-03T06:19:30.298Z,4.53
2019-01-03T06:22:18.119Z,3.63
2019-01-03T06:24:57.984Z,1.80
2019-01-03T06:27:45.711Z,2.90
2019-01-03T06:30:32.956Z,5.07
2019-01-03T06:33:12.994Z,2.77
2019-01-03T06:35:53.807Z,4.50
2019-01-03T06:38:27.877Z,3.87
2019-01-03T06:41:13.363Z,3.47
2019-01-03T06:43:44.315Z,3.87
2019-01-03T06:46:21.143Z,6.63
2019-01-03T06:49:10.983Z,3.20
2019-01-03T06:51:43.075Z,3.23
2019-01-03T06:54:13.965Z,3.00
2019-01-03T06:56:45.489Z,3.13
2019-01-03T06:59:19.739Z,2.90
2019-01-03T07:02:07.769Z,3.70
2019-01-03T07:04:41.400Z,4.87
2019-01-03T07:07:29.752Z,5.70
2019-01-03T07:10:17.557Z,4.50
2019-01-03T07:12:52.066Z,4.37
2019-01-03T07:15:29.191Z,3.77
2019-01-03T07:18:06.548Z,3.27
2019-01-03T07:20:54.211Z,3.30
2019-01-03T07:23:38.264Z,2.97
2019-01-03T07:26:26.387Z,5.33
2019-01-03T07:28:57.780Z,3.27
2019-01-03T07:31:32.078Z,4.07
2019-01-03T07:34:03.682Z,6.17
2019-01-03T07:36:34.575Z,4.67
2019-01-03T07:39:07.411Z,11.87
2019-01-03T07:41:38.927Z,7.53
2019-01-03T07:44:09.866Z,6.60
2019-01-03T07:46:42.283Z,6.33
2019-01-03T07:49:20.410Z,7.17
2019-01-03T07:52:08.371Z,7.87
2019-01-03T07:54:55.764Z,6.33
2019-01-03T07:57:27.043Z,5.93
2019-01-03T08:00:07.291Z,5.57
2019-01-03T08:02:44.707Z,4.73
2019-01-03T08:05:19.123Z,7.27
2019-01-03T08:07:53.363Z,4.70
2019-01-03T08:10:27.930Z,7.13
2019-01-03T08:13:17.028Z,6.27
2019-01-03T08:15:48.643Z,4.27
2019-01-03T08:18:25.404Z,6.53
2019-01-03T08:20:59.244Z,5.73
2019-01-03T08:23:33.697Z,4.87
2019-01-03T08:26:05.303Z,4.73
2019-01-03T08:28:53.158Z,4.73
2019-01-03T08:31:41.171Z,5.70
2019-01-03T08:34:24.387Z,5.30
2019-01-03T08:37:12.428Z,6.00
2019-01-03T08:39:55.724Z,7.43
2019-01-03T08:42:33.675Z,8.80
2019-01-03T08:45:16.568Z,7.27
2019-01-03T08:48:06.035Z,7.90
2019-01-03T08:50:49.447Z,7.10
2019-01-03T08:53:29.220Z,7.17
2019-01-03T08:56:00.161Z,7.47
2019-01-03T08:58:46.847Z,7.70
2019-01-03T09:01:21.674Z,8.27
2019-01-03T09:04:09.353Z,10.20
2019-01-03T09:06:57.963Z,8.70
2019-01-03T09:09:28.911Z,6.83
2019-01-03T09:12:16.646Z,12.90
2019-01-03T09:14:53.459Z,7.70
2019-01-03T09:17:25.002Z,7.07
2019-01-03T09:19:57.649Z,7.37
2019-01-03T09:22:37.527Z,12.07
2019-01-03T09:25:11.791Z,9.30
2019-01-03T09:27:54.806Z,9.63
2019-01-03T09:30:44.727Z,9.17
2019-01-03T09:33:34.464Z,10.53
2019-01-03T09:36:06.171Z,10.53
2019-01-03T09:38:39.024Z,10.60
2019-01-03T09:41:13.191Z,8.07
2019-01-03T09:43:50.556Z,13.40
2019-01-03T09:46:20.523Z,11.93
2019-01-03T09:48:50.691Z,10.67
2019-01-03T09:51:20.000Z,8.97
2019-01-03T09:53:50.377Z,10.00
2019-01-03T09:56:20.031Z,8.63
2019-01-03T09:58:49.996Z,11.77
2019-01-03T10:01:19.660Z,12.17
2019-01-03T10:03:49.881Z,11.03
2019-01-03T10:06:20.096Z,19.77
2019-01-03T10:08:49.352Z,12.53
2019-01-03T10:11:19.899Z,10.87
2019-01-03T10:13:50.683Z,11.50
2019-01-03T10:16:20.896Z,11.97
2019-01-03T10:18:50.860Z,12.27
2019-01-03T10:21:20.687Z,11.20
2019-01-03T10:23:49.983Z,12.03
2019-01-03T10:26:20.147Z,16.07
2019-01-03T10:28:50.831Z,13.33
2019-01-03T10:31:21.004Z,12.07
2019-01-03T10:33:50.871Z,15.10
2019-01-03T10:36:24.249Z,12.47
2019-01-03T10:38:52.483Z,11.40
2019-01-03T10:41:21.731Z,15.63
2019-01-03T10:43:51.035Z,18.03
2019-01-03T10:46:20.604Z,11.67
2019-01-03T10:48:50.828Z,15.20
2019-01-03T10:51:20.804Z,14.27
2019-01-03T10:53:50.451Z,10.60
2019-01-03T10:56:20.375Z,11.47
2019-01-03T10:58:49.634Z,15.73
2019-01-03T11:01:20.167Z,12.00
2019-01-03T11:03:49.463Z,10.80
2019-01-03T11:06:19.955Z,13.33
2019-01-03T11:08:49.251Z,12.53
2019-01-03T11:11:19.558Z,12.03
2019-01-03T11:13:48.860Z,19.27
2019-01-03T11:16:18.781Z,13.07
2019-01-03T11:18:48.895Z,37.13
2019-01-03T11:21:18.206Z,14.23
2019-01-03T11:23:48.119Z,14.00
2019-01-03T11:26:18.040Z,15.30
2019-01-03T11:28:47.641Z,15.37
2019-01-03T11:31:17.562Z,13.53
2019-01-03T11:33:47.163Z,15.10
2019-01-03T11:36:17.388Z,11.47
2019-01-03T11:38:46.647Z,9.13
2019-01-03T11:41:15.943Z,9.43
2019-01-03T11:43:45.187Z,14.60
2019-01-03T11:46:14.495Z,13.23
2019-01-03T11:48:43.755Z,13.80
2019-01-03T11:51:12.995Z,13.00
2019-01-03T11:53:42.300Z,15.70
2019-01-03T11:56:12.220Z,12.90
2019-01-03T11:58:42.142Z,15.60
2019-01-03T12:01:11.735Z,11.80
2019-01-03T12:03:41.236Z,13.83
2019-01-03T12:06:10.561Z,12.23
2019-01-03T12:08:40.766Z,15.10
2019-01-03T12:11:11.199Z,13.00
2019-01-03T12:13:40.919Z,15.17
2019-01-03T12:16:10.164Z,9.93
2019-01-03T12:18:40.701Z,14.67
2019-01-03T12:21:09.952Z,12.97
2019-01-03T12:23:39.539Z,15.67
2019-01-03T12:26:09.515Z,10.53
2019-01-03T12:28:39.020Z,14.80
2019-01-03T12:31:08.980Z,14.03
2019-01-03T12:33:39.471Z,16.07
2019-01-03T12:36:09.351Z,41.83
2019-01-03T12:38:39.271Z,22.00
2019-01-03T12:41:08.532Z,13.87
2019-01-03T12:43:37.827Z,15.33
2019-01-03T12:46:08.211Z,15.70
2019-01-03T12:48:37.767Z,10.77
2019-01-03T12:51:07.900Z,18.93
2019-01-03T12:53:37.202Z,12.70
2019-01-03T12:56:06.504Z,12.27
2019-01-03T12:58:36.728Z,12.70
2019-01-03T13:01:06.026Z,11.17
2019-01-03T13:03:35.949Z,13.33
2019-01-03T13:06:05.921Z,12.67
2019-01-03T13:08:35.166Z,14.50
2019-01-03T13:11:04.467Z,15.03
2019-01-03T13:13:33.716Z,12.80
2019-01-03T13:16:03.039Z,12.37
2019-01-03T13:18:33.187Z,12.63
2019-01-03T13:21:02.435Z,14.03
2019-01-03T13:23:32.984Z,13.30
2019-01-03T13:26:03.199Z,18.60
2019-01-03T13:28:33.364Z,13.30
2019-01-03T13:31:03.238Z,15.97
2019-01-03T13:33:33.151Z,13.40
2019-01-03T13:36:02.976Z,15.67
2019-01-03T13:38:32.615Z,13.13
2019-01-03T13:41:02.123Z,14.07
2019-01-03T13:43:31.731Z,12.53
2019-01-03T13:46:00.984Z,12.07
2019-01-03T13:48:30.279Z,11.57
2019-01-03T13:50:59.536Z,15.53
2019-01-03T13:53:29.039Z,14.93
2019-01-03T13:55:59.628Z,12.17
2019-01-03T13:58:29.179Z,11.33
2019-01-03T14:00:59.407Z,11.60
2019-01-03T14:03:29.324Z,11.70
2019-01-03T14:05:59.543Z,11.07
2019-01-03T14:08:29.461Z,11.70
2019-01-03T14:10:58.763Z,15.43
2019-01-03T14:13:28.738Z,10.17
2019-01-03T14:15:58.585Z,12.87
2019-01-03T14:18:28.812Z,13.83
2019-01-03T14:20:58.064Z,14.97
2019-01-03T14:23:27.315Z,11.40
2019-01-03T14:25:57.540Z,11.30
2019-01-03T14:28:28.270Z,11.10
2019-01-03T14:30:57.575Z,12.53
2019-01-03T14:33:27.392Z,10.87
2019-01-03T14:35:57.367Z,15.33
2019-01-03T14:38:27.179Z,10.13
2019-01-03T14:40:57.060Z,14.70
2019-01-03T14:43:26.642Z,13.50
2019-01-03T14:45:57.381Z,14.43
2019-01-03T14:48:27.600Z,11.90
2019-01-03T14:50:57.526Z,12.93
2019-01-03T14:53:26.819Z,14.30
2019-01-03T14:55:57.041Z,14.03
2019-01-03T14:58:26.807Z,12.60
2019-01-03T15:00:56.059Z,12.67
2019-01-03T15:03:26.023Z,13.87
2019-01-03T15:05:55.323Z,15.30
2019-01-03T15:08:24.883Z,18.57
2019-01-03T15:10:54.386Z,13.50
2019-01-03T15:13:24.612Z,15.50
2019-01-03T15:15:54.832Z,12.50
2019-01-03T15:18:24.240Z,16.90
2019-01-03T15:20:54.711Z,17.80
2019-01-03T15:23:24.275Z,12.20
2019-01-03T15:25:53.779Z,14.33
2019-01-03T15:28:23.655Z,21.23
2019-01-03T15:30:54.104Z,18.00
2019-01-03T15:33:24.030Z,17.80
2019-01-03T15:35:53.907Z,24.37
2019-01-03T15:38:23.738Z,17.53
2019-01-03T15:40:52.987Z,18.70
2019-01-03T15:43:23.363Z,20.63
2019-01-03T15:45:52.615Z,19.10
2019-01-03T15:48:22.443Z,22.00
2019-01-03T15:50:53.395Z,18.83
2019-01-03T15:53:22.651Z,24.57
2019-01-03T15:55:51.903Z,17.90
2019-01-03T15:58:22.446Z,15.30
2019-01-03T16:00:51.700Z,29.30
2019-01-03T16:03:21.291Z,24.13
2019-01-03T16:05:51.617Z,25.33
2019-01-03T16:08:20.925Z,21.07
2019-01-03T16:10:50.180Z,21.77
2019-01-03T16:13:20.059Z,22.07
2019-01-03T16:15:49.683Z,16.50
2019-01-03T16:18:18.931Z,18.73
2019-01-03T16:20:49.376Z,23.20
2019-01-03T16:23:20.167Z,20.97
2019-01-03T16:25:50.043Z,21.13
2019-01-03T16:28:19.305Z,24.03
2019-01-03T16:30:49.839Z,21.27
2019-01-03T16:33:19.763Z,21.03
2019-01-03T16:35:49.748Z,18.17
2019-01-03T16:38:18.991Z,22.87
2019-01-03T16:40:48.702Z,20.47
2019-01-03T16:43:18.671Z,25.97
2019-01-03T16:45:48.499Z,23.77
2019-01-03T16:48:18.476Z,24.13
2019-01-03T16:50:49.023Z,23.40
2019-01-03T16:53:18.840Z,22.80
2019-01-03T16:55:48.147Z,24.20
2019-01-03T16:58:17.820Z,22.53
2019-01-03T17:00:48.316Z,20.63
2019-01-03T17:03:18.191Z,21.27
2019-01-03T17:05:47.756Z,28.10
2019-01-03T17:08:17.576Z,23.67
2019-01-03T17:10:46.884Z,26.83
2019-01-03T17:13:16.139Z,22.77
2019-01-03T17:15:46.230Z,26.07
2019-01-03T17:18:15.435Z,22.20
2019-01-03T17:20:44.696Z,22.77
2019-01-03T17:23:14.676Z,26.00
2019-01-03T17:25:44.500Z,22.33
2019-01-03T17:28:14.235Z,22.03
2019-01-03T17:30:44.623Z,23.53
2019-01-03T17:33:13.932Z,22.20
2019-01-03T17:35:43.236Z,22.17
2019-01-03T17:38:12.492Z,20.70
2019-01-03T17:40:42.688Z,22.03
2019-01-03T17:43:12.296Z,19.33
2019-01-03T17:45:41.904Z,23.80
2019-01-03T17:48:11.731Z,21.10
2019-01-03T17:50:42.043Z,26.17
2019-01-03T17:53:11.323Z,21.67
2019-01-03T17:55:40.956Z,21.97
2019-01-03T17:58:10.928Z,24.73
2019-01-03T18:00:40.786Z,23.23
2019-01-03T18:03:10.679Z,22.53
2019-01-03T18:05:40.547Z,21.00
2019-01-03T18:08:10.419Z,23.17
2019-01-03T18:10:40.655Z,21.97
2019-01-03T18:13:10.876Z,19.57
2019-01-03T18:15:40.179Z,26.90
2019-01-03T18:18:09.787Z,25.37
2019-01-03T18:20:39.611Z,23.73
2019-01-03T18:23:09.209Z,28.60
2019-01-03T18:25:39.280Z,26.50
2019-01-03T18:28:09.451Z,25.87
2019-01-03T18:30:39.277Z,23.10
2019-01-03T18:33:09.252Z,23.67
2019-01-03T18:35:39.404Z,27.40
2019-01-03T18:38:09.895Z,27.77
2019-01-03T18:40:39.198Z,27.20
2019-01-03T18:43:08.507Z,29.70
2019-01-03T18:45:37.759Z,31.87
2019-01-03T18:48:07.019Z,24.97
2019-01-03T18:50:36.904Z,24.93
2019-01-03T18:53:06.723Z,25.80
2019-01-03T18:55:37.268Z,26.30
2019-01-03T18:58:07.487Z,31.10
2019-01-03T19:00:38.051Z,26.03
2019-01-03T19:03:07.936Z,27.13
2019-01-03T19:05:37.191Z,26.97
2019-01-03T19:08:06.495Z,28.60
2019-01-03T19:10:37.041Z,25.63
2019-01-03T19:13:06.619Z,22.80
2019-01-03T19:15:35.911Z,21.13
2019-01-03T19:18:05.170Z,26.67
2019-01-03T19:20:35.043Z,40.47
2019-01-03T19:23:04.869Z,26.60
2019-01-03T19:25:34.743Z,28.93
2019-01-03T19:28:05.076Z,22.97
2019-01-03T19:30:35.472Z,22.73
2019-01-03T19:33:04.775Z,21.57
2019-01-03T19:35:34.079Z,18.13
2019-01-03T19:38:03.907Z,20.73
2019-01-03T19:40:33.213Z,21.13
2019-01-03T19:43:02.731Z,27.73
2019-01-03T19:45:32.563Z,20.73
2019-01-03T19:48:02.867Z,20.70
2019-01-03T19:50:32.122Z,28.73
2019-01-03T19:53:01.431Z,32.80
2019-01-03T19:55:30.979Z,41.80
2019-01-03T19:58:00.856Z,33.10
2019-01-03T20:00:30.404Z,28.47
2019-01-03T20:03:00.007Z,27.83
2019-01-03T20:05:30.335Z,26.00
2019-01-03T20:07:59.592Z,25.13
2019-01-03T20:10:29.479Z,25.90
2019-01-03T20:12:59.571Z,26.47
2019-01-03T20:15:29.180Z,25.07
2019-01-03T20:17:58.483Z,21.97
2019-01-03T20:20:28.092Z,22.70
2019-01-03T20:22:58.415Z,23.57
2019-01-03T20:25:28.391Z,21.83
2019-01-03T20:27:58.267Z,22.17
2019-01-03T20:30:28.369Z,23.93
2019-01-03T20:32:57.676Z,22.67
2019-01-03T20:35:27.403Z,20.53
2019-01-03T20:37:56.656Z,20.70
2019-01-03T20:40:25.964Z,18.13
2019-01-03T20:42:55.883Z,21.23
2019-01-03T20:45:25.759Z,25.83
2019-01-03T20:47:55.019Z,23.77
2019-01-03T20:50:24.279Z,25.70
2019-01-03T20:52:53.923Z,23.10
2019-01-03T20:55:23.227Z,23.83
2019-01-03T20:57:53.449Z,23.33
2019-01-03T21:00:23.599Z,25.60
2019-01-03T21:02:52.860Z,20.37
2019-01-03T21:05:22.108Z,22.40
2019-01-03T21:07:51.419Z,23.50
2019-01-03T21:10:21.281Z,24.30
2019-01-03T21:12:50.795Z,24.50
2019-01-03T21:15:20.776Z,21.40
2019-01-03T21:17:50.079Z,21.93
2019-01-03T21:20:19.336Z,21.30
2019-01-03T21:22:50.583Z,22.13
2019-01-03T21:25:20.171Z,23.80
2019-01-03T21:27:49.428Z,23.27
2019-01-03T21:30:18.909Z,23.33
2019-01-03T21:32:50.467Z,23.17
2019-01-03T21:35:20.810Z,23.43
2019-01-03T21:37:50.068Z,22.17
2019-01-03T21:40:19.323Z,23.53
2019-01-03T21:42:48.968Z,23.80
2019-01-03T21:45:18.276Z,22.73
2019-01-03T21:47:48.067Z,24.33
2019-01-03T21:50:17.695Z,19.87
2019-01-03T21:52:47.299Z,21.80
2019-01-03T21:55:18.097Z,22.57
2019-01-03T21:57:48.987Z,20.33
2019-01-03T22:00:18.972Z,20.63
2019-01-03T22:02:49.363Z,18.90
2019-01-03T22:05:18.928Z,21.67
2019-01-03T22:07:49.672Z,22.37
2019-01-03T22:10:18.981Z,21.83
2019-01-03T22:12:49.466Z,23.60
2019-01-03T22:15:19.444Z,21.43
2019-01-03T22:17:49.527Z,19.07
2019-01-03T22:20:18.839Z,19.97
2019-01-03T22:22:48.952Z,20.17
2019-01-03T22:25:18.927Z,21.10
2019-01-03T22:27:48.752Z,21.73
2019-01-03T22:30:18.292Z,18.23
2019-01-03T22:32:48.444Z,21.43
2019-01-03T22:35:18.989Z,21.63
2019-01-03T22:37:48.242Z,25.53
2019-01-03T22:40:18.570Z,25.53
2019-01-03T22:42:49.212Z,24.93
2019-01-03T22:45:19.215Z,23.47
2019-01-03T22:47:49.341Z,26.07
2019-01-03T22:50:19.668Z,23.80
2019-01-03T22:52:49.647Z,25.53
2019-01-03T22:55:18.898Z,24.63
2019-01-03T22:57:48.800Z,26.83
2019-01-03T23:00:35.514Z,29.23
2019-01-03T23:03:05.919Z,23.03
2019-01-03T23:05:35.443Z,23.87
2019-01-03T23:08:05.367Z,20.83
2019-01-03T23:10:35.340Z,20.90
2019-01-03T23:13:05.163Z,21.20
